sensor_id;sensor_type;location;lat;lon;timestamp;P1;durP1;ratioP1;P2;durP2;ratioP2
37453;SDS011;23315;52.078;4.756;2023-12-14T00:01:32;18.15;;;8.13;;
37453;SDS011;23315;52.078;4.756;2023-12-14T00:03:58;15.57;;;8.60;;
37453;SDS011;23315;52.078;4.756;2023-12-14T00:06:23;18.13;;;8.25;;
37453;SDS011;23315;52.078;4.756;2023-12-14T00:08:49;14.63;;;8.90;;
37453;SDS011;23315;52.078;4.756;2023-12-14T00:11:14;18.52;;;7.97;;
37453;SDS011;23315;52.078;4.756;2023-12-14T00:13:39;19.45;;;8.23;;
37453;SDS011;23315;52.078;4.756;2023-12-14T00:16:05;15.45;;;9.85;;
37453;SDS011;23315;52.078;4.756;2023-12-14T00:18:31;16.27;;;8.15;;
37453;SDS011;23315;52.078;4.756;2023-12-14T00:20:56;16.02;;;9.15;;
37453;SDS011;23315;52.078;4.756;2023-12-14T00:23:22;18.65;;;8.38;;
37453;SDS011;23315;52.078;4.756;2023-12-14T00:25:48;14.27;;;7.43;;
37453;SDS011;23315;52.078;4.756;2023-12-14T00:28:13;19.95;;;8.57;;
37453;SDS011;23315;52.078;4.756;2023-12-14T00:30:38;16.13;;;8.60;;
37453;SDS011;23315;52.078;4.756;2023-12-14T00:33:04;19.63;;;8.95;;
37453;SDS011;23315;52.078;4.756;2023-12-14T00:35:29;15.75;;;8.20;;
37453;SDS011;23315;52.078;4.756;2023-12-14T00:37:55;19.90;;;7.85;;
37453;SDS011;23315;52.078;4.756;2023-12-14T00:40:20;13.40;;;8.35;;
37453;SDS011;23315;52.078;4.756;2023-12-14T00:42:45;17.27;;;8.30;;
37453;SDS011;23315;52.078;4.756;2023-12-14T00:45:11;15.18;;;8.55;;
37453;SDS011;23315;52.078;4.756;2023-12-14T00:47:36;18.45;;;8.27;;
37453;SDS011;23315;52.078;4.756;2023-12-14T00:50:01;17.33;;;8.23;;
37453;SDS011;23315;52.078;4.756;2023-12-14T00:52:27;23.58;;;8.57;;
37453;SDS011;23315;52.078;4.756;2023-12-14T00:54:52;13.30;;;7.80;;
37453;SDS011;23315;52.078;4.756;2023-12-14T00:57:18;17.13;;;8.45;;
37453;SDS011;23315;52.078;4.756;2023-12-14T00:59:43;17.48;;;7.63;;
37453;SDS011;23315;52.078;4.756;2023-12-14T01:02:08;16.35;;;7.57;;
37453;SDS011;23315;52.078;4.756;2023-12-14T01:04:34;16.30;;;8.35;;
37453;SDS011;23315;52.078;4.756;2023-12-14T01:06:59;15.27;;;7.90;;
37453;SDS011;23315;52.078;4.756;2023-12-14T01:09:24;16.83;;;8.23;;
37453;SDS011;23315;52.078;4.756;2023-12-14T01:11:50;16.77;;;9.20;;
37453;SDS011;23315;52.078;4.756;2023-12-14T01:14:15;17.08;;;8.32;;
37453;SDS011;23315;52.078;4.756;2023-12-14T01:16:41;13.95;;;8.43;;
37453;SDS011;23315;52.078;4.756;2023-12-14T01:19:06;14.65;;;7.38;;
37453;SDS011;23315;52.078;4.756;2023-12-14T01:21:32;13.05;;;8.10;;
37453;SDS011;23315;52.078;4.756;2023-12-14T01:23:58;17.42;;;8.60;;
37453;SDS011;23315;52.078;4.756;2023-12-14T01:26:23;13.30;;;7.30;;
37453;SDS011;23315;52.078;4.756;2023-12-14T01:28:48;14.80;;;7.05;;
37453;SDS011;23315;52.078;4.756;2023-12-14T01:31:13;16.60;;;7.75;;
37453;SDS011;23315;52.078;4.756;2023-12-14T01:33:39;18.50;;;8.65;;
37453;SDS011;23315;52.078;4.756;2023-12-14T01:36:04;16.30;;;6.95;;
37453;SDS011;23315;52.078;4.756;2023-12-14T01:38:30;15.93;;;7.80;;
37453;SDS011;23315;52.078;4.756;2023-12-14T01:40:55;14.75;;;6.75;;
37453;SDS011;23315;52.078;4.756;2023-12-14T01:43:21;12.50;;;6.85;;
37453;SDS011;23315;52.078;4.756;2023-12-14T01:45:46;13.18;;;6.13;;
37453;SDS011;23315;52.078;4.756;2023-12-14T01:48:12;12.15;;;6.00;;
37453;SDS011;23315;52.078;4.756;2023-12-14T01:50:37;16.05;;;7.03;;
37453;SDS011;23315;52.078;4.756;2023-12-14T01:53:02;19.45;;;7.45;;
37453;SDS011;23315;52.078;4.756;2023-12-14T01:55:28;16.77;;;6.55;;
37453;SDS011;23315;52.078;4.756;2023-12-14T01:57:53;12.23;;;5.47;;
37453;SDS011;23315;52.078;4.756;2023-12-14T02:00:21;14.60;;;5.57;;
37453;SDS011;23315;52.078;4.756;2023-12-14T02:02:53;15.80;;;6.28;;
37453;SDS011;23315;52.078;4.756;2023-12-14T02:05:19;15.93;;;5.80;;
37453;SDS011;23315;52.078;4.756;2023-12-14T02:07:44;14.43;;;6.15;;
37453;SDS011;23315;52.078;4.756;2023-12-14T02:10:10;16.85;;;5.40;;
37453;SDS011;23315;52.078;4.756;2023-12-14T02:12:35;13.25;;;6.28;;
37453;SDS011;23315;52.078;4.756;2023-12-14T02:15:00;11.25;;;4.80;;
37453;SDS011;23315;52.078;4.756;2023-12-14T02:17:26;13.32;;;4.90;;
37453;SDS011;23315;52.078;4.756;2023-12-14T02:19:51;16.20;;;5.85;;
37453;SDS011;23315;52.078;4.756;2023-12-14T02:22:16;9.77;;;4.97;;
37453;SDS011;23315;52.078;4.756;2023-12-14T02:24:42;12.15;;;4.88;;
37453;SDS011;23315;52.078;4.756;2023-12-14T02:27:08;16.73;;;6.47;;
37453;SDS011;23315;52.078;4.756;2023-12-14T02:29:33;12.88;;;5.57;;
37453;SDS011;23315;52.078;4.756;2023-12-14T02:31:58;12.27;;;5.40;;
37453;SDS011;23315;52.078;4.756;2023-12-14T02:34:24;13.85;;;4.75;;
37453;SDS011;23315;52.078;4.756;2023-12-14T02:36:50;18.40;;;6.53;;
37453;SDS011;23315;52.078;4.756;2023-12-14T02:39:15;10.48;;;5.10;;
37453;SDS011;23315;52.078;4.756;2023-12-14T02:41:40;9.38;;;4.47;;
37453;SDS011;23315;52.078;4.756;2023-12-14T02:44:06;12.65;;;5.47;;
37453;SDS011;23315;52.078;4.756;2023-12-14T02:46:31;10.13;;;4.53;;
37453;SDS011;23315;52.078;4.756;2023-12-14T02:48:56;9.63;;;5.47;;
37453;SDS011;23315;52.078;4.756;2023-12-14T02:51:22;9.23;;;4.10;;
37453;SDS011;23315;52.078;4.756;2023-12-14T02:53:47;9.90;;;4.93;;
37453;SDS011;23315;52.078;4.756;2023-12-14T02:56:12;8.30;;;4.53;;
37453;SDS011;23315;52.078;4.756;2023-12-14T02:58:38;10.43;;;4.00;;
37453;SDS011;23315;52.078;4.756;2023-12-14T03:01:03;15.10;;;4.70;;
37453;SDS011;23315;52.078;4.756;2023-12-14T03:03:29;10.00;;;4.47;;
37453;SDS011;23315;52.078;4.756;2023-12-14T03:05:54;9.70;;;4.53;;
37453;SDS011;23315;52.078;4.756;2023-12-14T03:08:20;9.93;;;5.13;;
37453;SDS011;23315;52.078;4.756;2023-12-14T03:10:45;12.63;;;5.78;;
37453;SDS011;23315;52.078;4.756;2023-12-14T03:13:10;15.27;;;5.60;;
37453;SDS011;23315;52.078;4.756;2023-12-14T03:15:36;12.57;;;4.82;;
37453;SDS011;23315;52.078;4.756;2023-12-14T03:18:01;9.40;;;4.93;;
37453;SDS011;23315;52.078;4.756;2023-12-14T03:20:28;10.45;;;6.43;;
37453;SDS011;23315;52.078;4.756;2023-12-14T03:22:54;12.98;;;4.93;;
37453;SDS011;23315;52.078;4.756;2023-12-14T03:25:19;10.10;;;4.63;;
37453;SDS011;23315;52.078;4.756;2023-12-14T03:27:44;14.07;;;5.30;;
37453;SDS011;23315;52.078;4.756;2023-12-14T03:30:10;11.00;;;5.10;;
37453;SDS011;23315;52.078;4.756;2023-12-14T03:32:36;8.15;;;4.38;;
37453;SDS011;23315;52.078;4.756;2023-12-14T03:35:01;12.50;;;4.28;;
37453;SDS011;23315;52.078;4.756;2023-12-14T03:37:26;9.13;;;4.68;;
37453;SDS011;23315;52.078;4.756;2023-12-14T03:39:52;8.68;;;4.72;;
37453;SDS011;23315;52.078;4.756;2023-12-14T03:42:17;11.05;;;4.82;;
37453;SDS011;23315;52.078;4.756;2023-12-14T03:44:42;13.40;;;4.85;;
37453;SDS011;23315;52.078;4.756;2023-12-14T03:47:08;18.33;;;5.40;;
37453;SDS011;23315;52.078;4.756;2023-12-14T03:49:37;13.45;;;4.97;;
37453;SDS011;23315;52.078;4.756;2023-12-14T03:52:03;12.80;;;5.07;;
37453;SDS011;23315;52.078;4.756;2023-12-14T03:54:29;14.23;;;5.00;;
37453;SDS011;23315;52.078;4.756;2023-12-14T03:56:54;11.30;;;4.68;;
37453;SDS011;23315;52.078;4.756;2023-12-14T03:59:19;10.48;;;3.78;;
37453;SDS011;23315;52.078;4.756;2023-12-14T04:01:45;8.20;;;3.33;;
37453;SDS011;23315;52.078;4.756;2023-12-14T04:04:10;7.88;;;3.97;;
37453;SDS011;23315;52.078;4.756;2023-12-14T04:06:35;9.27;;;3.80;;
37453;SDS011;23315;52.078;4.756;2023-12-14T04:09:01;11.02;;;4.20;;
37453;SDS011;23315;52.078;4.756;2023-12-14T04:11:26;7.75;;;3.58;;
37453;SDS011;23315;52.078;4.756;2023-12-14T04:13:51;10.35;;;4.28;;
37453;SDS011;23315;52.078;4.756;2023-12-14T04:16:21;7.10;;;3.40;;
37453;SDS011;23315;52.078;4.756;2023-12-14T04:18:47;7.15;;;3.50;;
37453;SDS011;23315;52.078;4.756;2023-12-14T04:21:13;12.00;;;5.55;;
37453;SDS011;23315;52.078;4.756;2023-12-14T04:23:38;10.07;;;4.35;;
37453;SDS011;23315;52.078;4.756;2023-12-14T04:26:03;7.82;;;4.03;;
37453;SDS011;23315;52.078;4.756;2023-12-14T04:28:29;8.65;;;4.10;;
37453;SDS011;23315;52.078;4.756;2023-12-14T04:30:54;12.57;;;3.92;;
37453;SDS011;23315;52.078;4.756;2023-12-14T04:33:19;6.85;;;4.22;;
37453;SDS011;23315;52.078;4.756;2023-12-14T04:35:45;8.80;;;4.65;;
37453;SDS011;23315;52.078;4.756;2023-12-14T04:38:10;6.60;;;3.72;;
37453;SDS011;23315;52.078;4.756;2023-12-14T04:40:36;7.15;;;4.15;;
37453;SDS011;23315;52.078;4.756;2023-12-14T04:43:01;10.05;;;4.63;;
37453;SDS011;23315;52.078;4.756;2023-12-14T04:45:27;9.35;;;4.40;;
37453;SDS011;23315;52.078;4.756;2023-12-14T04:47:52;11.93;;;4.25;;
37453;SDS011;23315;52.078;4.756;2023-12-14T04:50:18;7.85;;;4.65;;
37453;SDS011;23315;52.078;4.756;2023-12-14T04:52:43;9.05;;;5.07;;
37453;SDS011;23315;52.078;4.756;2023-12-14T04:55:08;10.35;;;4.68;;
37453;SDS011;23315;52.078;4.756;2023-12-14T04:57:34;10.95;;;4.88;;
37453;SDS011;23315;52.078;4.756;2023-12-14T05:00:00;8.52;;;4.25;;
37453;SDS011;23315;52.078;4.756;2023-12-14T05:02:25;11.90;;;4.30;;
37453;SDS011;23315;52.078;4.756;2023-12-14T05:04:50;8.43;;;4.57;;
37453;SDS011;23315;52.078;4.756;2023-12-14T05:07:15;9.65;;;5.03;;
37453;SDS011;23315;52.078;4.756;2023-12-14T05:09:41;9.35;;;4.63;;
37453;SDS011;23315;52.078;4.756;2023-12-14T05:12:06;12.15;;;5.28;;
37453;SDS011;23315;52.078;4.756;2023-12-14T05:14:32;8.88;;;4.95;;
37453;SDS011;23315;52.078;4.756;2023-12-14T05:16:57;9.27;;;5.28;;
37453;SDS011;23315;52.078;4.756;2023-12-14T05:19:23;7.82;;;5.15;;
37453;SDS011;23315;52.078;4.756;2023-12-14T05:21:48;9.95;;;4.75;;
37453;SDS011;23315;52.078;4.756;2023-12-14T05:24:14;9.77;;;5.20;;
37453;SDS011;23315;52.078;4.756;2023-12-14T05:26:39;7.63;;;4.93;;
37453;SDS011;23315;52.078;4.756;2023-12-14T05:29:04;12.77;;;4.70;;
37453;SDS011;23315;52.078;4.756;2023-12-14T05:31:30;9.20;;;4.80;;
37453;SDS011;23315;52.078;4.756;2023-12-14T05:33:55;11.98;;;4.90;;
37453;SDS011;23315;52.078;4.756;2023-12-14T05:36:20;12.45;;;5.07;;
37453;SDS011;23315;52.078;4.756;2023-12-14T05:38:46;11.80;;;5.05;;
37453;SDS011;23315;52.078;4.756;2023-12-14T05:41:11;8.90;;;4.72;;
37453;SDS011;23315;52.078;4.756;2023-12-14T05:43:36;9.48;;;4.88;;
37453;SDS011;23315;52.078;4.756;2023-12-14T05:46:02;9.95;;;4.35;;
37453;SDS011;23315;52.078;4.756;2023-12-14T05:48:28;12.75;;;5.53;;
37453;SDS011;23315;52.078;4.756;2023-12-14T05:50:54;10.20;;;5.88;;
37453;SDS011;23315;52.078;4.756;2023-12-14T05:53:21;15.30;;;6.43;;
37453;SDS011;23315;52.078;4.756;2023-12-14T05:55:46;10.23;;;5.07;;
37453;SDS011;23315;52.078;4.756;2023-12-14T05:58:12;13.15;;;5.63;;
37453;SDS011;23315;52.078;4.756;2023-12-14T06:00:37;8.27;;;4.32;;
37453;SDS011;23315;52.078;4.756;2023-12-14T06:03:03;8.60;;;4.75;;
37453;SDS011;23315;52.078;4.756;2023-12-14T06:05:29;8.55;;;4.97;;
37453;SDS011;23315;52.078;4.756;2023-12-14T06:07:55;9.20;;;5.10;;
37453;SDS011;23315;52.078;4.756;2023-12-14T06:10:20;8.43;;;5.00;;
37453;SDS011;23315;52.078;4.756;2023-12-14T06:12:46;10.52;;;5.63;;
37453;SDS011;23315;52.078;4.756;2023-12-14T06:15:11;9.23;;;4.45;;
37453;SDS011;23315;52.078;4.756;2023-12-14T06:17:37;12.13;;;5.45;;
37453;SDS011;23315;52.078;4.756;2023-12-14T06:20:04;11.45;;;6.03;;
37453;SDS011;23315;52.078;4.756;2023-12-14T06:22:33;13.00;;;5.88;;
37453;SDS011;23315;52.078;4.756;2023-12-14T06:24:58;11.52;;;5.75;;
37453;SDS011;23315;52.078;4.756;2023-12-14T06:27:24;16.20;;;6.63;;
37453;SDS011;23315;52.078;4.756;2023-12-14T06:29:51;11.45;;;5.10;;
37453;SDS011;23315;52.078;4.756;2023-12-14T06:32:17;10.30;;;5.00;;
37453;SDS011;23315;52.078;4.756;2023-12-14T06:34:42;9.02;;;5.20;;
37453;SDS011;23315;52.078;4.756;2023-12-14T06:37:07;8.60;;;4.50;;
37453;SDS011;23315;52.078;4.756;2023-12-14T06:39:33;8.48;;;4.80;;
37453;SDS011;23315;52.078;4.756;2023-12-14T06:41:58;7.10;;;4.45;;
37453;SDS011;23315;52.078;4.756;2023-12-14T06:44:23;6.88;;;4.20;;
37453;SDS011;23315;52.078;4.756;2023-12-14T06:46:51;8.80;;;4.55;;
37453;SDS011;23315;52.078;4.756;2023-12-14T06:49:16;9.95;;;4.80;;
37453;SDS011;23315;52.078;4.756;2023-12-14T06:51:42;15.98;;;6.93;;
37453;SDS011;23315;52.078;4.756;2023-12-14T06:54:07;10.98;;;5.20;;
37453;SDS011;23315;52.078;4.756;2023-12-14T06:56:32;10.18;;;5.13;;
37453;SDS011;23315;52.078;4.756;2023-12-14T06:58:58;10.40;;;5.47;;
37453;SDS011;23315;52.078;4.756;2023-12-14T07:01:23;7.80;;;4.53;;
37453;SDS011;23315;52.078;4.756;2023-12-14T07:03:48;8.75;;;4.80;;
37453;SDS011;23315;52.078;4.756;2023-12-14T07:06:14;9.85;;;4.80;;
37453;SDS011;23315;52.078;4.756;2023-12-14T07:08:40;7.47;;;4.22;;
37453;SDS011;23315;52.078;4.756;2023-12-14T07:11:10;11.23;;;4.97;;
37453;SDS011;23315;52.078;4.756;2023-12-14T07:13:36;7.68;;;4.32;;
37453;SDS011;23315;52.078;4.756;2023-12-14T07:16:05;11.85;;;5.63;;
37453;SDS011;23315;52.078;4.756;2023-12-14T07:18:32;6.93;;;4.65;;
37453;SDS011;23315;52.078;4.756;2023-12-14T07:20:58;11.02;;;5.00;;
37453;SDS011;23315;52.078;4.756;2023-12-14T07:23:24;8.75;;;4.75;;
37453;SDS011;23315;52.078;4.756;2023-12-14T07:25:49;13.07;;;5.93;;
37453;SDS011;23315;52.078;4.756;2023-12-14T07:28:14;9.68;;;5.07;;
37453;SDS011;23315;52.078;4.756;2023-12-14T07:30:39;11.02;;;5.35;;
37453;SDS011;23315;52.078;4.756;2023-12-14T07:33:05;11.00;;;6.97;;
37453;SDS011;23315;52.078;4.756;2023-12-14T07:35:30;10.82;;;6.97;;
37453;SDS011;23315;52.078;4.756;2023-12-14T07:37:55;10.23;;;5.43;;
37453;SDS011;23315;52.078;4.756;2023-12-14T07:40:21;10.23;;;5.53;;
37453;SDS011;23315;52.078;4.756;2023-12-14T07:42:46;10.05;;;5.57;;
37453;SDS011;23315;52.078;4.756;2023-12-14T07:45:11;8.60;;;5.53;;
37453;SDS011;23315;52.078;4.756;2023-12-14T07:47:37;15.20;;;5.45;;
37453;SDS011;23315;52.078;4.756;2023-12-14T07:50:02;10.60;;;6.18;;
37453;SDS011;23315;52.078;4.756;2023-12-14T07:52:28;13.30;;;6.72;;
37453;SDS011;23315;52.078;4.756;2023-12-14T07:54:54;10.52;;;6.00;;
37453;SDS011;23315;52.078;4.756;2023-12-14T07:57:19;7.68;;;4.57;;
37453;SDS011;23315;52.078;4.756;2023-12-14T07:59:44;8.80;;;5.57;;
37453;SDS011;23315;52.078;4.756;2023-12-14T08:02:11;9.05;;;5.20;;
37453;SDS011;23315;52.078;4.756;2023-12-14T08:04:36;10.23;;;5.70;;
37453;SDS011;23315;52.078;4.756;2023-12-14T08:07:02;7.97;;;5.20;;
37453;SDS011;23315;52.078;4.756;2023-12-14T08:09:27;10.30;;;5.32;;
37453;SDS011;23315;52.078;4.756;2023-12-14T08:11:52;9.48;;;5.22;;
37453;SDS011;23315;52.078;4.756;2023-12-14T08:14:18;11.05;;;5.72;;
37453;SDS011;23315;52.078;4.756;2023-12-14T08:16:43;10.80;;;6.07;;
37453;SDS011;23315;52.078;4.756;2023-12-14T08:19:08;9.60;;;6.00;;
37453;SDS011;23315;52.078;4.756;2023-12-14T08:21:34;9.77;;;5.60;;
37453;SDS011;23315;52.078;4.756;2023-12-14T08:23:59;9.13;;;5.32;;
37453;SDS011;23315;52.078;4.756;2023-12-14T08:26:24;11.60;;;5.97;;
37453;SDS011;23315;52.078;4.756;2023-12-14T08:28:50;8.70;;;5.50;;
37453;SDS011;23315;52.078;4.756;2023-12-14T08:31:15;10.00;;;6.15;;
37453;SDS011;23315;52.078;4.756;2023-12-14T08:33:41;9.95;;;6.35;;
37453;SDS011;23315;52.078;4.756;2023-12-14T08:36:07;10.75;;;6.65;;
37453;SDS011;23315;52.078;4.756;2023-12-14T08:38:33;13.50;;;7.82;;
37453;SDS011;23315;52.078;4.756;2023-12-14T08:40:58;13.30;;;7.18;;
37453;SDS011;23315;52.078;4.756;2023-12-14T08:43:23;12.05;;;6.75;;
37453;SDS011;23315;52.078;4.756;2023-12-14T08:45:49;10.52;;;6.03;;
37453;SDS011;23315;52.078;4.756;2023-12-14T08:48:14;14.02;;;7.72;;
37453;SDS011;23315;52.078;4.756;2023-12-14T08:50:39;10.88;;;7.30;;
37453;SDS011;23315;52.078;4.756;2023-12-14T08:53:05;12.02;;;6.88;;
37453;SDS011;23315;52.078;4.756;2023-12-14T08:55:30;9.85;;;6.60;;
37453;SDS011;23315;52.078;4.756;2023-12-14T08:57:56;11.73;;;7.15;;
37453;SDS011;23315;52.078;4.756;2023-12-14T09:00:22;12.57;;;7.03;;
37453;SDS011;23315;52.078;4.756;2023-12-14T09:02:48;13.02;;;6.70;;
37453;SDS011;23315;52.078;4.756;2023-12-14T09:05:14;13.75;;;6.80;;
37453;SDS011;23315;52.078;4.756;2023-12-14T09:07:40;14.13;;;7.10;;
37453;SDS011;23315;52.078;4.756;2023-12-14T09:10:06;12.23;;;6.93;;
37453;SDS011;23315;52.078;4.756;2023-12-14T09:12:32;12.25;;;8.27;;
37453;SDS011;23315;52.078;4.756;2023-12-14T09:14:58;10.40;;;6.57;;
37453;SDS011;23315;52.078;4.756;2023-12-14T09:17:24;13.68;;;7.53;;
37453;SDS011;23315;52.078;4.756;2023-12-14T09:19:49;11.73;;;7.07;;
37453;SDS011;23315;52.078;4.756;2023-12-14T09:22:14;13.05;;;7.35;;
37453;SDS011;23315;52.078;4.756;2023-12-14T09:24:39;11.15;;;6.85;;
37453;SDS011;23315;52.078;4.756;2023-12-14T09:27:05;12.77;;;6.78;;
37453;SDS011;23315;52.078;4.756;2023-12-14T09:29:30;13.48;;;7.10;;
37453;SDS011;23315;52.078;4.756;2023-12-14T09:31:55;15.05;;;6.72;;
37453;SDS011;23315;52.078;4.756;2023-12-14T09:34:21;10.70;;;6.22;;
37453;SDS011;23315;52.078;4.756;2023-12-14T09:36:46;14.13;;;8.43;;
37453;SDS011;23315;52.078;4.756;2023-12-14T09:39:12;15.38;;;6.43;;
37453;SDS011;23315;52.078;4.756;2023-12-14T09:41:37;10.45;;;5.80;;
37453;SDS011;23315;52.078;4.756;2023-12-14T09:44:04;10.15;;;6.15;;
37453;SDS011;23315;52.078;4.756;2023-12-14T09:46:30;13.02;;;5.38;;
37453;SDS011;23315;52.078;4.756;2023-12-14T09:48:57;10.88;;;4.90;;
37453;SDS011;23315;52.078;4.756;2023-12-14T09:51:22;12.60;;;5.85;;
37453;SDS011;23315;52.078;4.756;2023-12-14T09:53:48;8.20;;;5.55;;
37453;SDS011;23315;52.078;4.756;2023-12-14T09:56:14;14.38;;;6.57;;
37453;SDS011;23315;52.078;4.756;2023-12-14T09:58:39;16.17;;;7.75;;
37453;SDS011;23315;52.078;4.756;2023-12-14T10:01:20;13.65;;;6.10;;
37453;SDS011;23315;52.078;4.756;2023-12-14T10:03:49;12.77;;;7.00;;
37453;SDS011;23315;52.078;4.756;2023-12-14T10:06:14;10.00;;;6.22;;
37453;SDS011;23315;52.078;4.756;2023-12-14T10:08:40;10.38;;;6.07;;
37453;SDS011;23315;52.078;4.756;2023-12-14T10:11:05;12.70;;;5.10;;
37453;SDS011;23315;52.078;4.756;2023-12-14T10:13:40;10.52;;;5.40;;
37453;SDS011;23315;52.078;4.756;2023-12-14T10:16:06;14.38;;;6.35;;
37453;SDS011;23315;52.078;4.756;2023-12-14T10:18:32;8.65;;;4.78;;
37453;SDS011;23315;52.078;4.756;2023-12-14T10:21:01;12.82;;;6.25;;
37453;SDS011;23315;52.078;4.756;2023-12-14T10:23:29;9.98;;;6.18;;
37453;SDS011;23315;52.078;4.756;2023-12-14T10:25:55;12.20;;;5.22;;
37453;SDS011;23315;52.078;4.756;2023-12-14T10:28:20;11.93;;;6.18;;
37453;SDS011;23315;52.078;4.756;2023-12-14T10:30:45;11.35;;;5.40;;
37453;SDS011;23315;52.078;4.756;2023-12-14T10:33:11;11.32;;;5.97;;
37453;SDS011;23315;52.078;4.756;2023-12-14T10:35:36;12.80;;;5.95;;
37453;SDS011;23315;52.078;4.756;2023-12-14T10:38:02;14.23;;;5.97;;
37453;SDS011;23315;52.078;4.756;2023-12-14T10:40:31;9.57;;;4.82;;
37453;SDS011;23315;52.078;4.756;2023-12-14T10:43:00;10.57;;;4.95;;
37453;SDS011;23315;52.078;4.756;2023-12-14T10:45:28;12.43;;;5.15;;
37453;SDS011;23315;52.078;4.756;2023-12-14T10:47:54;10.45;;;5.32;;
37453;SDS011;23315;52.078;4.756;2023-12-14T10:50:21;10.25;;;5.47;;
37453;SDS011;23315;52.078;4.756;2023-12-14T10:52:47;9.50;;;5.13;;
37453;SDS011;23315;52.078;4.756;2023-12-14T10:55:18;9.48;;;5.88;;
37453;SDS011;23315;52.078;4.756;2023-12-14T10:57:48;9.40;;;5.63;;
37453;SDS011;23315;52.078;4.756;2023-12-14T11:00:13;6.53;;;5.03;;
37453;SDS011;23315;52.078;4.756;2023-12-14T11:02:41;9.48;;;5.47;;
37453;SDS011;23315;52.078;4.756;2023-12-14T11:05:14;10.98;;;5.28;;
37453;SDS011;23315;52.078;4.756;2023-12-14T11:10:22;9.63;;;5.25;;
37453;SDS011;23315;52.078;4.756;2023-12-14T11:15:17;9.02;;;5.15;;
37453;SDS011;23315;52.078;4.756;2023-12-14T11:18:05;9.70;;;5.05;;
37453;SDS011;23315;52.078;4.756;2023-12-14T11:20:39;6.43;;;4.78;;
37453;SDS011;23315;52.078;4.756;2023-12-14T11:25:51;7.55;;;5.32;;
37453;SDS011;23315;52.078;4.756;2023-12-14T11:28:24;13.00;;;5.10;;
37453;SDS011;23315;52.078;4.756;2023-12-14T11:30:49;10.95;;;5.53;;
37453;SDS011;23315;52.078;4.756;2023-12-14T11:33:15;12.00;;;6.18;;
37453;SDS011;23315;52.078;4.756;2023-12-14T11:35:41;8.88;;;5.68;;
37453;SDS011;23315;52.078;4.756;2023-12-14T11:38:06;11.43;;;6.32;;
37453;SDS011;23315;52.078;4.756;2023-12-14T11:40:37;11.30;;;6.15;;
37453;SDS011;23315;52.078;4.756;2023-12-14T11:43:04;11.98;;;6.47;;
37453;SDS011;23315;52.078;4.756;2023-12-14T11:45:33;12.02;;;6.05;;
37453;SDS011;23315;52.078;4.756;2023-12-14T11:47:59;12.57;;;6.57;;
37453;SDS011;23315;52.078;4.756;2023-12-14T11:50:26;12.45;;;6.78;;
37453;SDS011;23315;52.078;4.756;2023-12-14T11:52:52;14.02;;;7.53;;
37453;SDS011;23315;52.078;4.756;2023-12-14T11:55:18;12.55;;;6.53;;
37453;SDS011;23315;52.078;4.756;2023-12-14T11:57:46;15.85;;;6.85;;
37453;SDS011;23315;52.078;4.756;2023-12-14T12:00:12;11.75;;;6.82;;
37453;SDS011;23315;52.078;4.756;2023-12-14T12:02:39;11.00;;;6.38;;
37453;SDS011;23315;52.078;4.756;2023-12-14T12:05:05;12.05;;;7.00;;
37453;SDS011;23315;52.078;4.756;2023-12-14T12:07:38;11.55;;;6.68;;
37453;SDS011;23315;52.078;4.756;2023-12-14T12:10:04;13.07;;;6.88;;
37453;SDS011;23315;52.078;4.756;2023-12-14T12:12:32;11.48;;;6.30;;
37453;SDS011;23315;52.078;4.756;2023-12-14T12:14:59;12.85;;;6.07;;
37453;SDS011;23315;52.078;4.756;2023-12-14T12:17:24;9.98;;;4.55;;
37453;SDS011;23315;52.078;4.756;2023-12-14T12:19:49;9.32;;;4.65;;
37453;SDS011;23315;52.078;4.756;2023-12-14T12:22:14;10.32;;;4.38;;
37453;SDS011;23315;52.078;4.756;2023-12-14T12:24:40;7.00;;;3.83;;
37453;SDS011;23315;52.078;4.756;2023-12-14T12:27:05;11.98;;;5.68;;
37453;SDS011;23315;52.078;4.756;2023-12-14T12:29:31;8.70;;;3.85;;
37453;SDS011;23315;52.078;4.756;2023-12-14T12:31:56;7.93;;;4.05;;
37453;SDS011;23315;52.078;4.756;2023-12-14T12:34:22;13.18;;;4.10;;
37453;SDS011;23315;52.078;4.756;2023-12-14T12:36:47;10.60;;;3.72;;
37453;SDS011;23315;52.078;4.756;2023-12-14T12:39:13;9.95;;;4.13;;
37453;SDS011;23315;52.078;4.756;2023-12-14T12:41:38;7.88;;;3.72;;
37453;SDS011;23315;52.078;4.756;2023-12-14T12:44:04;10.70;;;4.13;;
37453;SDS011;23315;52.078;4.756;2023-12-14T12:46:33;8.52;;;3.70;;
37453;SDS011;23315;52.078;4.756;2023-12-14T12:49:02;14.27;;;3.83;;
37453;SDS011;23315;52.078;4.756;2023-12-14T12:51:28;7.20;;;3.75;;
37453;SDS011;23315;52.078;4.756;2023-12-14T12:53:54;7.60;;;3.40;;
37453;SDS011;23315;52.078;4.756;2023-12-14T12:56:20;8.60;;;4.15;;
37453;SDS011;23315;52.078;4.756;2023-12-14T12:58:46;7.85;;;3.60;;
37453;SDS011;23315;52.078;4.756;2023-12-14T13:01:11;7.45;;;3.72;;
37453;SDS011;23315;52.078;4.756;2023-12-14T13:03:37;6.30;;;4.07;;
37453;SDS011;23315;52.078;4.756;2023-12-14T13:06:02;9.35;;;4.03;;
37453;SDS011;23315;52.078;4.756;2023-12-14T13:08:28;6.88;;;3.58;;
37453;SDS011;23315;52.078;4.756;2023-12-14T13:10:53;6.97;;;3.15;;
37453;SDS011;23315;52.078;4.756;2023-12-14T13:13:18;14.35;;;4.35;;
37453;SDS011;23315;52.078;4.756;2023-12-14T13:15:44;7.35;;;3.80;;
37453;SDS011;23315;52.078;4.756;2023-12-14T13:18:09;6.68;;;3.60;;
37453;SDS011;23315;52.078;4.756;2023-12-14T13:20:34;10.02;;;3.95;;
37453;SDS011;23315;52.078;4.756;2023-12-14T13:23:00;15.63;;;5.65;;
37453;SDS011;23315;52.078;4.756;2023-12-14T13:25:26;10.98;;;4.28;;
37453;SDS011;23315;52.078;4.756;2023-12-14T13:27:51;8.40;;;3.50;;
37453;SDS011;23315;52.078;4.756;2023-12-14T13:30:16;8.00;;;4.20;;
37453;SDS011;23315;52.078;4.756;2023-12-14T13:32:42;10.60;;;4.30;;
37453;SDS011;23315;52.078;4.756;2023-12-14T13:35:07;6.95;;;4.03;;
37453;SDS011;23315;52.078;4.756;2023-12-14T13:37:34;8.45;;;3.67;;
37453;SDS011;23315;52.078;4.756;2023-12-14T13:39:59;9.20;;;4.40;;
37453;SDS011;23315;52.078;4.756;2023-12-14T13:42:25;14.80;;;4.40;;
37453;SDS011;23315;52.078;4.756;2023-12-14T13:44:50;10.75;;;4.82;;
37453;SDS011;23315;52.078;4.756;2023-12-14T13:47:16;10.20;;;4.18;;
37453;SDS011;23315;52.078;4.756;2023-12-14T13:49:41;10.10;;;5.47;;
37453;SDS011;23315;52.078;4.756;2023-12-14T13:52:07;10.65;;;5.07;;
37453;SDS011;23315;52.078;4.756;2023-12-14T13:54:32;14.38;;;4.65;;
37453;SDS011;23315;52.078;4.756;2023-12-14T13:56:57;11.00;;;4.80;;
37453;SDS011;23315;52.078;4.756;2023-12-14T13:59:23;12.10;;;5.75;;
37453;SDS011;23315;52.078;4.756;2023-12-14T14:01:48;12.13;;;6.10;;
37453;SDS011;23315;52.078;4.756;2023-12-14T14:04:17;13.00;;;5.55;;
37453;SDS011;23315;52.078;4.756;2023-12-14T14:06:43;15.98;;;5.63;;
37453;SDS011;23315;52.078;4.756;2023-12-14T14:09:08;13.07;;;5.30;;
37453;SDS011;23315;52.078;4.756;2023-12-14T14:11:33;13.27;;;5.88;;
37453;SDS011;23315;52.078;4.756;2023-12-14T14:14:00;10.93;;;5.45;;
37453;SDS011;23315;52.078;4.756;2023-12-14T14:16:25;13.60;;;6.05;;
37453;SDS011;23315;52.078;4.756;2023-12-14T14:18:51;14.18;;;6.07;;
37453;SDS011;23315;52.078;4.756;2023-12-14T14:21:16;11.20;;;5.63;;
37453;SDS011;23315;52.078;4.756;2023-12-14T14:23:42;11.93;;;5.40;;
37453;SDS011;23315;52.078;4.756;2023-12-14T14:26:07;16.15;;;6.63;;
37453;SDS011;23315;52.078;4.756;2023-12-14T14:28:32;14.15;;;6.50;;
37453;SDS011;23315;52.078;4.756;2023-12-14T14:30:58;12.63;;;6.55;;
37453;SDS011;23315;52.078;4.756;2023-12-14T14:33:23;16.35;;;7.22;;
37453;SDS011;23315;52.078;4.756;2023-12-14T14:35:50;16.60;;;7.45;;
37453;SDS011;23315;52.078;4.756;2023-12-14T14:38:16;11.30;;;7.05;;